Auburndale, Florida
Current Conditions -  °F | °C
As of 8:53 PM on Wednesday 17 Dec 2014 (Local Time) from KGIF Reporting Station
Clear Clear  
Wind Chill: 57°   Ceiling: Unl
Heat Index: 57°   Visibility: 10mi
Dew Point: 47°   Wind: 3mph
Humidity: 69%   Direction: 320°NW
Pressure: 30.17"   Gusts: NA
Location:  28.06°N, 81.78°W
Report Text: KGIF 180153Z AUTO 32003KT 10SM CLR 14/08 A3017 RMK AO2 SLP215 T01390083
Loading
Personal Weather Stations






























Interactive Weather Map New forecast layout! Learn more

10-Day Weather Forecast

Advertisements
Track Severe Weather on mobile